sensor_id;sensor_type;location;lat;lon;timestamp;P1;durP1;ratioP1;P2;durP2;ratioP2
21175;SDS011;10746;50.178;8.186;2023-02-28T00:00:47;3.80;;;3.40;;
21175;SDS011;10746;50.178;8.186;2023-02-28T00:03:14;3.97;;;3.67;;
21175;SDS011;10746;50.178;8.186;2023-02-28T00:05:41;4.93;;;3.50;;
21175;SDS011;10746;50.178;8.186;2023-02-28T00:08:08;3.93;;;3.67;;
21175;SDS011;10746;50.178;8.186;2023-02-28T00:10:35;4.53;;;3.37;;
21175;SDS011;10746;50.178;8.186;2023-02-28T00:13:03;5.53;;;3.67;;
21175;SDS011;10746;50.178;8.186;2023-02-28T00:15:33;4.23;;;3.83;;
21175;SDS011;10746;50.178;8.186;2023-02-28T00:18:00;4.67;;;3.80;;
21175;SDS011;10746;50.178;8.186;2023-02-28T00:20:27;5.90;;;3.63;;
21175;SDS011;10746;50.178;8.186;2023-02-28T00:22:54;5.90;;;4.00;;
21175;SDS011;10746;50.178;8.186;2023-02-28T00:25:22;5.43;;;3.70;;
21175;SDS011;10746;50.178;8.186;2023-02-28T00:27:51;5.50;;;3.67;;
21175;SDS011;10746;50.178;8.186;2023-02-28T00:30:19;4.20;;;3.77;;
21175;SDS011;10746;50.178;8.186;2023-02-28T00:32:48;6.63;;;3.90;;
21175;SDS011;10746;50.178;8.186;2023-02-28T00:35:16;4.00;;;3.70;;
21175;SDS011;10746;50.178;8.186;2023-02-28T00:37:43;6.07;;;4.10;;
21175;SDS011;10746;50.178;8.186;2023-02-28T00:40:10;4.47;;;4.10;;
21175;SDS011;10746;50.178;8.186;2023-02-28T00:42:38;6.83;;;3.83;;
21175;SDS011;10746;50.178;8.186;2023-02-28T00:45:05;4.17;;;3.70;;
21175;SDS011;10746;50.178;8.186;2023-02-28T00:47:33;6.67;;;4.40;;
21175;SDS011;10746;50.178;8.186;2023-02-28T00:50:02;7.73;;;4.53;;
21175;SDS011;10746;50.178;8.186;2023-02-28T00:52:29;5.17;;;4.47;;
21175;SDS011;10746;50.178;8.186;2023-02-28T00:54:56;6.27;;;4.93;;
21175;SDS011;10746;50.178;8.186;2023-02-28T00:57:23;6.93;;;4.50;;
21175;SDS011;10746;50.178;8.186;2023-02-28T00:59:50;5.77;;;4.77;;
21175;SDS011;10746;50.178;8.186;2023-02-28T01:02:19;5.50;;;4.30;;
21175;SDS011;10746;50.178;8.186;2023-02-28T01:04:46;6.40;;;4.60;;
21175;SDS011;10746;50.178;8.186;2023-02-28T01:07:14;5.00;;;4.37;;
21175;SDS011;10746;50.178;8.186;2023-02-28T01:09:41;5.93;;;4.87;;
21175;SDS011;10746;50.178;8.186;2023-02-28T01:12:08;4.80;;;4.40;;
21175;SDS011;10746;50.178;8.186;2023-02-28T01:14:35;6.30;;;4.97;;
21175;SDS011;10746;50.178;8.186;2023-02-28T01:17:02;7.10;;;4.67;;
21175;SDS011;10746;50.178;8.186;2023-02-28T01:19:29;7.53;;;5.07;;
21175;SDS011;10746;50.178;8.186;2023-02-28T01:21:56;8.77;;;5.10;;
21175;SDS011;10746;50.178;8.186;2023-02-28T01:24:24;7.53;;;5.20;;
21175;SDS011;10746;50.178;8.186;2023-02-28T01:26:51;9.67;;;5.00;;
21175;SDS011;10746;50.178;8.186;2023-02-28T01:29:18;8.67;;;6.73;;
21175;SDS011;10746;50.178;8.186;2023-02-28T01:31:44;8.70;;;5.90;;
21175;SDS011;10746;50.178;8.186;2023-02-28T01:34:11;6.27;;;5.37;;
21175;SDS011;10746;50.178;8.186;2023-02-28T01:36:38;8.40;;;5.17;;
21175;SDS011;10746;50.178;8.186;2023-02-28T01:39:05;8.73;;;5.77;;
21175;SDS011;10746;50.178;8.186;2023-02-28T01:41:33;9.30;;;6.27;;
21175;SDS011;10746;50.178;8.186;2023-02-28T01:44:03;7.13;;;5.53;;
21175;SDS011;10746;50.178;8.186;2023-02-28T01:46:31;10.90;;;6.27;;
21175;SDS011;10746;50.178;8.186;2023-02-28T01:49:00;7.40;;;5.90;;
21175;SDS011;10746;50.178;8.186;2023-02-28T01:51:31;8.90;;;6.03;;
21175;SDS011;10746;50.178;8.186;2023-02-28T01:54:05;10.00;;;6.10;;
21175;SDS011;10746;50.178;8.186;2023-02-28T01:56:40;8.73;;;5.70;;
21175;SDS011;10746;50.178;8.186;2023-02-28T01:59:12;9.57;;;6.57;;
21175;SDS011;10746;50.178;8.186;2023-02-28T02:01:45;10.03;;;6.70;;
21175;SDS011;10746;50.178;8.186;2023-02-28T02:04:12;7.60;;;5.57;;
21175;SDS011;10746;50.178;8.186;2023-02-28T02:06:40;10.53;;;6.00;;
21175;SDS011;10746;50.178;8.186;2023-02-28T02:09:10;8.37;;;5.90;;
21175;SDS011;10746;50.178;8.186;2023-02-28T02:11:37;11.83;;;6.50;;
21175;SDS011;10746;50.178;8.186;2023-02-28T02:14:11;10.10;;;6.27;;
21175;SDS011;10746;50.178;8.186;2023-02-28T02:16:50;10.00;;;6.67;;
21175;SDS011;10746;50.178;8.186;2023-02-28T02:19:43;8.87;;;6.47;;
21175;SDS011;10746;50.178;8.186;2023-02-28T02:25:53;10.43;;;5.80;;
21175;SDS011;10746;50.178;8.186;2023-02-28T02:28:33;9.90;;;6.33;;
21175;SDS011;10746;50.178;8.186;2023-02-28T02:31:18;9.47;;;6.07;;
21175;SDS011;10746;50.178;8.186;2023-02-28T02:37:00;8.37;;;5.70;;
21175;SDS011;10746;50.178;8.186;2023-02-28T02:39:35;9.43;;;5.90;;
21175;SDS011;10746;50.178;8.186;2023-02-28T02:42:09;9.20;;;5.83;;
21175;SDS011;10746;50.178;8.186;2023-02-28T02:44:42;9.70;;;6.00;;
21175;SDS011;10746;50.178;8.186;2023-02-28T02:47:14;10.97;;;6.23;;
21175;SDS011;10746;50.178;8.186;2023-02-28T02:49:45;9.67;;;6.27;;
21175;SDS011;10746;50.178;8.186;2023-02-28T02:52:15;12.37;;;6.50;;
21175;SDS011;10746;50.178;8.186;2023-02-28T02:54:47;7.70;;;6.03;;
21175;SDS011;10746;50.178;8.186;2023-02-28T02:57:17;9.03;;;5.97;;
21175;SDS011;10746;50.178;8.186;2023-02-28T02:59:48;11.90;;;5.83;;
21175;SDS011;10746;50.178;8.186;2023-02-28T03:02:18;10.63;;;6.60;;
21175;SDS011;10746;50.178;8.186;2023-02-28T03:04:50;10.03;;;6.70;;
21175;SDS011;10746;50.178;8.186;2023-02-28T03:07:19;10.70;;;6.60;;
21175;SDS011;10746;50.178;8.186;2023-02-28T03:09:50;14.13;;;6.63;;
21175;SDS011;10746;50.178;8.186;2023-02-28T03:12:18;11.13;;;6.07;;
21175;SDS011;10746;50.178;8.186;2023-02-28T03:14:52;9.63;;;6.63;;
21175;SDS011;10746;50.178;8.186;2023-02-28T03:17:33;10.27;;;6.67;;
21175;SDS011;10746;50.178;8.186;2023-02-28T03:20:15;11.00;;;6.93;;
21175;SDS011;10746;50.178;8.186;2023-02-28T03:22:51;11.03;;;6.80;;
21175;SDS011;10746;50.178;8.186;2023-02-28T03:25:23;8.37;;;6.33;;
21175;SDS011;10746;50.178;8.186;2023-02-28T03:28:02;9.50;;;6.93;;
21175;SDS011;10746;50.178;8.186;2023-02-28T03:30:37;11.43;;;6.40;;
21175;SDS011;10746;50.178;8.186;2023-02-28T03:33:10;11.57;;;6.93;;
21175;SDS011;10746;50.178;8.186;2023-02-28T03:35:43;10.67;;;6.60;;
21175;SDS011;10746;50.178;8.186;2023-02-28T03:38:14;9.07;;;6.23;;
21175;SDS011;10746;50.178;8.186;2023-02-28T03:40:46;11.03;;;6.53;;
21175;SDS011;10746;50.178;8.186;2023-02-28T03:43:17;11.60;;;7.03;;
21175;SDS011;10746;50.178;8.186;2023-02-28T03:45:48;12.13;;;7.13;;
21175;SDS011;10746;50.178;8.186;2023-02-28T03:48:18;12.60;;;7.17;;
21175;SDS011;10746;50.178;8.186;2023-02-28T03:50:50;10.07;;;6.77;;
21175;SDS011;10746;50.178;8.186;2023-02-28T03:53:21;13.53;;;6.80;;
21175;SDS011;10746;50.178;8.186;2023-02-28T03:55:52;15.00;;;8.00;;
21175;SDS011;10746;50.178;8.186;2023-02-28T03:58:22;18.37;;;9.33;;
21175;SDS011;10746;50.178;8.186;2023-02-28T04:00:55;15.63;;;9.07;;
21175;SDS011;10746;50.178;8.186;2023-02-28T04:03:33;15.57;;;7.80;;
21175;SDS011;10746;50.178;8.186;2023-02-28T04:06:02;10.63;;;7.37;;
21175;SDS011;10746;50.178;8.186;2023-02-28T04:08:30;13.97;;;7.83;;
21175;SDS011;10746;50.178;8.186;2023-02-28T04:10:58;11.37;;;6.97;;
21175;SDS011;10746;50.178;8.186;2023-02-28T04:13:28;12.27;;;6.70;;
21175;SDS011;10746;50.178;8.186;2023-02-28T04:15:55;11.43;;;7.03;;
21175;SDS011;10746;50.178;8.186;2023-02-28T04:18:22;12.13;;;7.30;;
21175;SDS011;10746;50.178;8.186;2023-02-28T04:20:49;8.97;;;6.60;;
21175;SDS011;10746;50.178;8.186;2023-02-28T04:23:17;15.03;;;7.43;;
21175;SDS011;10746;50.178;8.186;2023-02-28T04:25:44;10.93;;;7.27;;
21175;SDS011;10746;50.178;8.186;2023-02-28T04:28:10;11.53;;;7.27;;
21175;SDS011;10746;50.178;8.186;2023-02-28T04:30:37;13.33;;;7.33;;
21175;SDS011;10746;50.178;8.186;2023-02-28T04:33:05;14.13;;;7.73;;
21175;SDS011;10746;50.178;8.186;2023-02-28T04:35:32;9.57;;;6.70;;
21175;SDS011;10746;50.178;8.186;2023-02-28T04:37:59;12.33;;;7.20;;
21175;SDS011;10746;50.178;8.186;2023-02-28T04:40:27;10.77;;;6.80;;
21175;SDS011;10746;50.178;8.186;2023-02-28T04:42:53;13.73;;;7.77;;
21175;SDS011;10746;50.178;8.186;2023-02-28T04:45:20;9.93;;;7.43;;
21175;SDS011;10746;50.178;8.186;2023-02-28T04:47:47;14.53;;;8.20;;
21175;SDS011;10746;50.178;8.186;2023-02-28T04:50:14;10.53;;;7.33;;
21175;SDS011;10746;50.178;8.186;2023-02-28T04:52:41;12.67;;;7.43;;
21175;SDS011;10746;50.178;8.186;2023-02-28T04:55:08;14.60;;;7.50;;
21175;SDS011;10746;50.178;8.186;2023-02-28T04:57:36;10.67;;;7.07;;
21175;SDS011;10746;50.178;8.186;2023-02-28T05:00:03;13.60;;;8.30;;
21175;SDS011;10746;50.178;8.186;2023-02-28T05:02:36;11.83;;;7.07;;
21175;SDS011;10746;50.178;8.186;2023-02-28T05:05:04;14.20;;;7.83;;
21175;SDS011;10746;50.178;8.186;2023-02-28T05:07:31;10.07;;;6.87;;
21175;SDS011;10746;50.178;8.186;2023-02-28T05:09:58;12.87;;;7.13;;
21175;SDS011;10746;50.178;8.186;2023-02-28T05:12:24;11.17;;;7.50;;
21175;SDS011;10746;50.178;8.186;2023-02-28T05:14:52;13.83;;;7.40;;
21175;SDS011;10746;50.178;8.186;2023-02-28T05:17:19;10.90;;;6.53;;
21175;SDS011;10746;50.178;8.186;2023-02-28T05:19:46;13.57;;;7.30;;
21175;SDS011;10746;50.178;8.186;2023-02-28T05:22:13;11.50;;;6.50;;
21175;SDS011;10746;50.178;8.186;2023-02-28T05:24:41;14.00;;;6.93;;
21175;SDS011;10746;50.178;8.186;2023-02-28T05:27:09;10.87;;;6.83;;
21175;SDS011;10746;50.178;8.186;2023-02-28T05:29:36;9.80;;;6.40;;
21175;SDS011;10746;50.178;8.186;2023-02-28T05:32:08;15.10;;;6.87;;
21175;SDS011;10746;50.178;8.186;2023-02-28T05:34:36;12.67;;;6.70;;
21175;SDS011;10746;50.178;8.186;2023-02-28T05:37:03;12.07;;;7.47;;
21175;SDS011;10746;50.178;8.186;2023-02-28T05:39:29;10.20;;;7.00;;
21175;SDS011;10746;50.178;8.186;2023-02-28T05:41:56;12.73;;;6.63;;
21175;SDS011;10746;50.178;8.186;2023-02-28T05:44:23;11.53;;;6.53;;
21175;SDS011;10746;50.178;8.186;2023-02-28T05:46:50;11.40;;;6.80;;
21175;SDS011;10746;50.178;8.186;2023-02-28T05:49:18;14.97;;;6.77;;
21175;SDS011;10746;50.178;8.186;2023-02-28T05:51:45;12.87;;;6.80;;
21175;SDS011;10746;50.178;8.186;2023-02-28T05:54:11;11.10;;;6.93;;
21175;SDS011;10746;50.178;8.186;2023-02-28T05:56:38;11.90;;;7.00;;
21175;SDS011;10746;50.178;8.186;2023-02-28T05:59:05;11.73;;;7.07;;
21175;SDS011;10746;50.178;8.186;2023-02-28T06:01:33;14.07;;;7.63;;
21175;SDS011;10746;50.178;8.186;2023-02-28T06:04:01;13.83;;;7.30;;
21175;SDS011;10746;50.178;8.186;2023-02-28T06:06:32;12.20;;;7.13;;
21175;SDS011;10746;50.178;8.186;2023-02-28T06:09:00;13.37;;;6.60;;
21175;SDS011;10746;50.178;8.186;2023-02-28T06:11:27;16.53;;;7.30;;
21175;SDS011;10746;50.178;8.186;2023-02-28T06:13:54;15.67;;;7.23;;
21175;SDS011;10746;50.178;8.186;2023-02-28T06:16:22;12.57;;;6.47;;
21175;SDS011;10746;50.178;8.186;2023-02-28T06:18:49;13.77;;;7.30;;
21175;SDS011;10746;50.178;8.186;2023-02-28T06:21:15;14.83;;;7.83;;
21175;SDS011;10746;50.178;8.186;2023-02-28T06:23:44;10.53;;;6.53;;
21175;SDS011;10746;50.178;8.186;2023-02-28T06:26:10;11.70;;;7.27;;
21175;SDS011;10746;50.178;8.186;2023-02-28T06:28:37;9.87;;;6.83;;
21175;SDS011;10746;50.178;8.186;2023-02-28T06:31:07;9.90;;;6.47;;
21175;SDS011;10746;50.178;8.186;2023-02-28T06:33:36;13.27;;;6.70;;
21175;SDS011;10746;50.178;8.186;2023-02-28T06:36:03;15.47;;;6.83;;
21175;SDS011;10746;50.178;8.186;2023-02-28T06:38:31;8.07;;;6.40;;
21175;SDS011;10746;50.178;8.186;2023-02-28T06:40:59;9.33;;;5.87;;
21175;SDS011;10746;50.178;8.186;2023-02-28T06:43:27;9.93;;;6.43;;
21175;SDS011;10746;50.178;8.186;2023-02-28T06:45:55;7.70;;;5.40;;
21175;SDS011;10746;50.178;8.186;2023-02-28T06:48:23;9.50;;;5.83;;
21175;SDS011;10746;50.178;8.186;2023-02-28T06:50:50;10.00;;;6.03;;
21175;SDS011;10746;50.178;8.186;2023-02-28T06:53:16;5.43;;;4.93;;
21175;SDS011;10746;50.178;8.186;2023-02-28T06:55:43;9.00;;;5.73;;
21175;SDS011;10746;50.178;8.186;2023-02-28T06:58:11;11.30;;;5.43;;
21175;SDS011;10746;50.178;8.186;2023-02-28T07:00:43;10.20;;;5.03;;
21175;SDS011;10746;50.178;8.186;2023-02-28T07:03:11;8.07;;;5.60;;
21175;SDS011;10746;50.178;8.186;2023-02-28T07:05:40;11.87;;;6.13;;
21175;SDS011;10746;50.178;8.186;2023-02-28T07:08:07;9.47;;;5.90;;
21175;SDS011;10746;50.178;8.186;2023-02-28T07:10:33;9.47;;;6.27;;
21175;SDS011;10746;50.178;8.186;2023-02-28T07:13:02;7.80;;;5.70;;
21175;SDS011;10746;50.178;8.186;2023-02-28T07:15:31;8.70;;;5.00;;
21175;SDS011;10746;50.178;8.186;2023-02-28T07:17:58;9.73;;;5.77;;
21175;SDS011;10746;50.178;8.186;2023-02-28T07:20:24;10.00;;;5.37;;
21175;SDS011;10746;50.178;8.186;2023-02-28T07:22:51;8.70;;;5.33;;
21175;SDS011;10746;50.178;8.186;2023-02-28T07:25:21;8.63;;;5.63;;
21175;SDS011;10746;50.178;8.186;2023-02-28T07:27:48;6.63;;;4.97;;
21175;SDS011;10746;50.178;8.186;2023-02-28T07:30:15;8.33;;;5.63;;
21175;SDS011;10746;50.178;8.186;2023-02-28T07:32:44;9.87;;;5.70;;
21175;SDS011;10746;50.178;8.186;2023-02-28T07:35:11;10.07;;;5.23;;
21175;SDS011;10746;50.178;8.186;2023-02-28T07:37:40;8.77;;;5.23;;
21175;SDS011;10746;50.178;8.186;2023-02-28T07:40:08;8.73;;;5.40;;
21175;SDS011;10746;50.178;8.186;2023-02-28T07:42:37;8.03;;;4.97;;
21175;SDS011;10746;50.178;8.186;2023-02-28T07:45:05;7.20;;;4.87;;
21175;SDS011;10746;50.178;8.186;2023-02-28T07:47:33;6.47;;;4.80;;
21175;SDS011;10746;50.178;8.186;2023-02-28T07:50:01;9.87;;;5.77;;
21175;SDS011;10746;50.178;8.186;2023-02-28T07:52:28;5.87;;;4.90;;
21175;SDS011;10746;50.178;8.186;2023-02-28T07:54:54;8.37;;;5.03;;
21175;SDS011;10746;50.178;8.186;2023-02-28T07:57:21;6.37;;;4.63;;
21175;SDS011;10746;50.178;8.186;2023-02-28T07:59:48;7.33;;;4.80;;
21175;SDS011;10746;50.178;8.186;2023-02-28T08:02:15;6.03;;;4.20;;
21175;SDS011;10746;50.178;8.186;2023-02-28T08:04:43;6.90;;;4.90;;
21175;SDS011;10746;50.178;8.186;2023-02-28T08:07:13;7.13;;;4.90;;
21175;SDS011;10746;50.178;8.186;2023-02-28T08:09:40;6.30;;;4.73;;
21175;SDS011;10746;50.178;8.186;2023-02-28T08:12:07;5.57;;;4.60;;
21175;SDS011;10746;50.178;8.186;2023-02-28T08:14:35;6.43;;;4.53;;
21175;SDS011;10746;50.178;8.186;2023-02-28T08:17:02;6.20;;;4.63;;
21175;SDS011;10746;50.178;8.186;2023-02-28T08:19:29;7.23;;;5.10;;
21175;SDS011;10746;50.178;8.186;2023-02-28T08:21:56;6.47;;;4.40;;
21175;SDS011;10746;50.178;8.186;2023-02-28T08:24:24;5.57;;;4.17;;
21175;SDS011;10746;50.178;8.186;2023-02-28T08:26:50;6.30;;;4.43;;
21175;SDS011;10746;50.178;8.186;2023-02-28T08:29:17;4.33;;;3.37;;
21175;SDS011;10746;50.178;8.186;2023-02-28T08:31:44;5.27;;;4.43;;
21175;SDS011;10746;50.178;8.186;2023-02-28T08:34:11;5.77;;;4.20;;
21175;SDS011;10746;50.178;8.186;2023-02-28T08:36:39;7.57;;;4.53;;
21175;SDS011;10746;50.178;8.186;2023-02-28T08:39:07;5.70;;;4.13;;
21175;SDS011;10746;50.178;8.186;2023-02-28T08:41:36;6.50;;;4.40;;
21175;SDS011;10746;50.178;8.186;2023-02-28T08:44:03;6.07;;;4.23;;
21175;SDS011;10746;50.178;8.186;2023-02-28T08:46:30;6.93;;;4.10;;
21175;SDS011;10746;50.178;8.186;2023-02-28T08:48:56;5.70;;;4.23;;
21175;SDS011;10746;50.178;8.186;2023-02-28T08:51:25;6.40;;;4.53;;
21175;SDS011;10746;50.178;8.186;2023-02-28T08:53:52;5.00;;;3.67;;
21175;SDS011;10746;50.178;8.186;2023-02-28T08:56:20;7.27;;;3.97;;
21175;SDS011;10746;50.178;8.186;2023-02-28T08:58:49;4.70;;;4.03;;
21175;SDS011;10746;50.178;8.186;2023-02-28T09:01:17;4.13;;;3.53;;
21175;SDS011;10746;50.178;8.186;2023-02-28T09:03:45;4.20;;;3.77;;
21175;SDS011;10746;50.178;8.186;2023-02-28T09:06:13;4.77;;;3.90;;
21175;SDS011;10746;50.178;8.186;2023-02-28T09:08:41;5.30;;;2.93;;
21175;SDS011;10746;50.178;8.186;2023-02-28T09:11:08;3.47;;;3.17;;
21175;SDS011;10746;50.178;8.186;2023-02-28T09:13:35;4.27;;;3.40;;
21175;SDS011;10746;50.178;8.186;2023-02-28T09:16:05;3.13;;;2.93;;
21175;SDS011;10746;50.178;8.186;2023-02-28T09:18:34;4.07;;;3.10;;
21175;SDS011;10746;50.178;8.186;2023-02-28T09:21:02;3.17;;;2.97;;
21175;SDS011;10746;50.178;8.186;2023-02-28T09:23:30;2.87;;;2.63;;
21175;SDS011;10746;50.178;8.186;2023-02-28T09:25:57;3.40;;;3.10;;
21175;SDS011;10746;50.178;8.186;2023-02-28T09:28:23;3.20;;;2.90;;
21175;SDS011;10746;50.178;8.186;2023-02-28T09:30:51;3.60;;;3.20;;
21175;SDS011;10746;50.178;8.186;2023-02-28T09:33:21;2.77;;;2.57;;
21175;SDS011;10746;50.178;8.186;2023-02-28T09:35:48;4.63;;;3.23;;
21175;SDS011;10746;50.178;8.186;2023-02-28T09:38:16;3.53;;;3.23;;
21175;SDS011;10746;50.178;8.186;2023-02-28T09:40:45;3.87;;;3.07;;
21175;SDS011;10746;50.178;8.186;2023-02-28T09:43:16;4.00;;;3.60;;
21175;SDS011;10746;50.178;8.186;2023-02-28T09:45:46;3.57;;;3.27;;
21175;SDS011;10746;50.178;8.186;2023-02-28T09:48:18;3.50;;;3.20;;
21175;SDS011;10746;50.178;8.186;2023-02-28T09:50:49;3.37;;;3.07;;
21175;SDS011;10746;50.178;8.186;2023-02-28T09:53:19;3.90;;;3.50;;
21175;SDS011;10746;50.178;8.186;2023-02-28T09:55:53;5.37;;;3.30;;
21175;SDS011;10746;50.178;8.186;2023-02-28T09:58:26;4.50;;;3.43;;
21175;SDS011;10746;50.178;8.186;2023-02-28T10:01:03;3.47;;;3.17;;
21175;SDS011;10746;50.178;8.186;2023-02-28T10:03:36;3.97;;;3.60;;
21175;SDS011;10746;50.178;8.186;2023-02-28T10:06:07;6.47;;;3.70;;
21175;SDS011;10746;50.178;8.186;2023-02-28T10:08:41;4.00;;;3.60;;
21175;SDS011;10746;50.178;8.186;2023-02-28T10:11:14;6.33;;;3.13;;
21175;SDS011;10746;50.178;8.186;2023-02-28T10:13:46;7.47;;;3.50;;
21175;SDS011;10746;50.178;8.186;2023-02-28T10:16:20;4.57;;;3.87;;
21175;SDS011;10746;50.178;8.186;2023-02-28T10:18:54;6.57;;;3.73;;
21175;SDS011;10746;50.178;8.186;2023-02-28T10:21:26;3.57;;;3.27;;
21175;SDS011;10746;50.178;8.186;2023-02-28T10:24:01;4.27;;;3.90;;
21175;SDS011;10746;50.178;8.186;2023-02-28T10:26:33;4.77;;;3.77;;
21175;SDS011;10746;50.178;8.186;2023-02-28T10:29:02;4.63;;;3.80;;
21175;SDS011;10746;50.178;8.186;2023-02-28T10:31:29;5.17;;;4.13;;
21175;SDS011;10746;50.178;8.186;2023-02-28T10:33:57;5.07;;;4.10;;
21175;SDS011;10746;50.178;8.186;2023-02-28T10:36:24;5.63;;;4.27;;
21175;SDS011;10746;50.178;8.186;2023-02-28T10:38:51;5.53;;;4.30;;
21175;SDS011;10746;50.178;8.186;2023-02-28T10:41:27;4.93;;;4.27;;
21175;SDS011;10746;50.178;8.186;2023-02-28T10:46:41;4.73;;;3.90;;
21175;SDS011;10746;50.178;8.186;2023-02-28T10:49:14;6.30;;;3.80;;
21175;SDS011;10746;50.178;8.186;2023-02-28T10:51:44;8.70;;;4.40;;
21175;SDS011;10746;50.178;8.186;2023-02-28T10:54:16;4.13;;;3.73;;
21175;SDS011;10746;50.178;8.186;2023-02-28T10:56:54;7.80;;;4.17;;
21175;SDS011;10746;50.178;8.186;2023-02-28T10:59:34;4.20;;;3.80;;
21175;SDS011;10746;50.178;8.186;2023-02-28T11:02:01;6.27;;;4.67;;
21175;SDS011;10746;50.178;8.186;2023-02-28T11:04:54;5.13;;;4.10;;
21175;SDS011;10746;50.178;8.186;2023-02-28T11:07:21;6.20;;;4.47;;
21175;SDS011;10746;50.178;8.186;2023-02-28T11:09:50;5.93;;;4.47;;
21175;SDS011;10746;50.178;8.186;2023-02-28T11:12:22;6.37;;;4.23;;
21175;SDS011;10746;50.178;8.186;2023-02-28T11:14:52;6.83;;;4.07;;
21175;SDS011;10746;50.178;8.186;2023-02-28T11:17:22;10.67;;;4.33;;
21175;SDS011;10746;50.178;8.186;2023-02-28T11:19:51;5.13;;;3.90;;
21175;SDS011;10746;50.178;8.186;2023-02-28T11:22:21;7.70;;;4.30;;
21175;SDS011;10746;50.178;8.186;2023-02-28T11:24:53;5.87;;;4.40;;
21175;SDS011;10746;50.178;8.186;2023-02-28T11:27:43;4.13;;;3.73;;
21175;SDS011;10746;50.178;8.186;2023-02-28T11:30:35;4.97;;;3.93;;
21175;SDS011;10746;50.178;8.186;2023-02-28T11:35:49;5.00;;;4.10;;
21175;SDS011;10746;50.178;8.186;2023-02-28T11:38:17;7.40;;;3.93;;
21175;SDS011;10746;50.178;8.186;2023-02-28T11:40:46;6.47;;;4.43;;
21175;SDS011;10746;50.178;8.186;2023-02-28T11:43:26;5.47;;;4.67;;
21175;SDS011;10746;50.178;8.186;2023-02-28T11:46:06;6.50;;;4.43;;
21175;SDS011;10746;50.178;8.186;2023-02-28T11:48:44;6.23;;;3.93;;
21175;SDS011;10746;50.178;8.186;2023-02-28T11:51:23;8.67;;;4.87;;
21175;SDS011;10746;50.178;8.186;2023-02-28T11:54:04;4.83;;;3.57;;
21175;SDS011;10746;50.178;8.186;2023-02-28T11:56:51;4.87;;;4.10;;
21175;SDS011;10746;50.178;8.186;2023-02-28T11:59:27;6.83;;;5.03;;
21175;SDS011;10746;50.178;8.186;2023-02-28T12:02:09;8.60;;;4.33;;
21175;SDS011;10746;50.178;8.186;2023-02-28T12:04:56;7.17;;;3.83;;
21175;SDS011;10746;50.178;8.186;2023-02-28T12:07:39;15.20;;;4.50;;
21175;SDS011;10746;50.178;8.186;2023-02-28T12:10:20;4.97;;;3.97;;
21175;SDS011;10746;50.178;8.186;2023-02-28T12:12:51;8.63;;;5.60;;
21175;SDS011;10746;50.178;8.186;2023-02-28T12:15:29;6.27;;;4.67;;
21175;SDS011;10746;50.178;8.186;2023-02-28T12:18:13;5.00;;;4.37;;
21175;SDS011;10746;50.178;8.186;2023-02-28T12:21:01;6.07;;;4.50;;
21175;SDS011;10746;50.178;8.186;2023-02-28T12:23:52;5.17;;;4.10;;
21175;SDS011;10746;50.178;8.186;2023-02-28T12:26:44;6.97;;;4.70;;
21175;SDS011;10746;50.178;8.186;2023-02-28T12:29:15;4.77;;;3.97;;
21175;SDS011;10746;50.178;8.186;2023-02-28T12:31:47;5.63;;;4.30;;
21175;SDS011;10746;50.178;8.186;2023-02-28T12:34:19;5.47;;;4.37;;
21175;SDS011;10746;50.178;8.186;2023-02-28T12:36:48;4.50;;;3.83;;
21175;SDS011;10746;50.178;8.186;2023-02-28T12:39:23;6.00;;;4.47;;
21175;SDS011;10746;50.178;8.186;2023-02-28T12:41:53;5.17;;;4.50;;
21175;SDS011;10746;50.178;8.186;2023-02-28T12:44:25;4.57;;;4.03;;
21175;SDS011;10746;50.178;8.186;2023-02-28T12:46:57;7.17;;;4.43;;
21175;SDS011;10746;50.178;8.186;2023-02-28T12:49:27;8.50;;;4.73;;
21175;SDS011;10746;50.178;8.186;2023-02-28T12:51:57;8.30;;;4.40;;
21175;SDS011;10746;50.178;8.186;2023-02-28T12:54:28;7.33;;;4.70;;
21175;SDS011;10746;50.178;8.186;2023-02-28T12:57:01;8.60;;;5.63;;
21175;SDS011;10746;50.178;8.186;2023-02-28T12:59:34;9.80;;;5.33;;
21175;SDS011;10746;50.178;8.186;2023-02-28T13:05:10;7.23;;;5.03;;
21175;SDS011;10746;50.178;8.186;2023-02-28T13:08:15;8.30;;;5.53;;
21175;SDS011;10746;50.178;8.186;2023-02-28T13:10:57;5.53;;;4.83;;
21175;SDS011;10746;50.178;8.186;2023-02-28T13:13:24;9.90;;;5.43;;
21175;SDS011;10746;50.178;8.186;2023-02-28T13:16:02;6.63;;;5.03;;
21175;SDS011;10746;50.178;8.186;2023-02-28T13:18:32;6.90;;;5.03;;
21175;SDS011;10746;50.178;8.186;2023-02-28T13:21:02;8.97;;;5.63;;
21175;SDS011;10746;50.178;8.186;2023-02-28T13:23:38;11.53;;;5.50;;
21175;SDS011;10746;50.178;8.186;2023-02-28T13:26:24;6.90;;;5.47;;
21175;SDS011;10746;50.178;8.186;2023-02-28T13:29:30;7.43;;;5.50;;
21175;SDS011;10746;50.178;8.186;2023-02-28T13:44:09;6.17;;;4.93;;
21175;SDS011;10746;50.178;8.186;2023-02-28T13:47:15;11.87;;;5.40;;
21175;SDS011;10746;50.178;8.186;2023-02-28T13:49:47;9.33;;;5.17;;
21175;SDS011;10746;50.178;8.186;2023-02-28T13:52:17;5.83;;;4.63;;
21175;SDS011;10746;50.178;8.186;2023-02-28T13:54:57;8.47;;;5.50;;
21175;SDS011;10746;50.178;8.186;2023-02-28T13:57:44;6.97;;;5.30;;
21175;SDS011;10746;50.178;8.186;2023-02-28T14:00:28;6.03;;;4.60;;
21175;SDS011;10746;50.178;8.186;2023-02-28T14:03:09;9.43;;;5.43;;
21175;SDS011;10746;50.178;8.186;2023-02-28T14:06:14;10.13;;;5.30;;
21175;SDS011;10746;50.178;8.186;2023-02-28T14:08:52;6.73;;;5.40;;
21175;SDS011;10746;50.178;8.186;2023-02-28T14:11:30;7.30;;;5.07;;
21175;SDS011;10746;50.178;8.186;2023-02-28T14:13:59;7.13;;;5.13;;
21175;SDS011;10746;50.178;8.186;2023-02-28T14:16:27;6.17;;;4.43;;
21175;SDS011;10746;50.178;8.186;2023-02-28T14:19:03;9.80;;;4.97;;
21175;SDS011;10746;50.178;8.186;2023-02-28T14:21:38;6.77;;;5.10;;
21175;SDS011;10746;50.178;8.186;2023-02-28T14:24:15;5.27;;;4.77;;
21175;SDS011;10746;50.178;8.186;2023-02-28T14:33:22;8.00;;;5.00;;
21175;SDS011;10746;50.178;8.186;2023-02-28T14:36:00;7.47;;;4.13;;
21175;SDS011;10746;50.178;8.186;2023-02-28T14:38:32;7.13;;;4.83;;
21175;SDS011;10746;50.178;8.186;2023-02-28T14:41:03;8.57;;;5.13;;
21175;SDS011;10746;50.178;8.186;2023-02-28T14:43:46;8.43;;;4.87;;
21175;SDS011;10746;50.178;8.186;2023-02-28T14:46:14;7.57;;;5.30;;
21175;SDS011;10746;50.178;8.186;2023-02-28T14:48:45;7.97;;;4.87;;
21175;SDS011;10746;50.178;8.186;2023-02-28T14:51:17;8.60;;;5.20;;
21175;SDS011;10746;50.178;8.186;2023-02-28T14:53:47;6.33;;;5.37;;
21175;SDS011;10746;50.178;8.186;2023-02-28T14:56:19;7.90;;;4.53;;
21175;SDS011;10746;50.178;8.186;2023-02-28T14:58:52;8.57;;;5.30;;
21175;SDS011;10746;50.178;8.186;2023-02-28T15:01:20;7.43;;;5.50;;
21175;SDS011;10746;50.178;8.186;2023-02-28T15:03:49;8.07;;;5.53;;
21175;SDS011;10746;50.178;8.186;2023-02-28T15:06:24;8.23;;;5.33;;
21175;SDS011;10746;50.178;8.186;2023-02-28T15:11:33;11.33;;;5.13;;
21175;SDS011;10746;50.178;8.186;2023-02-28T15:14:01;6.03;;;4.93;;
21175;SDS011;10746;50.178;8.186;2023-02-28T15:16:29;6.17;;;4.70;;
21175;SDS011;10746;50.178;8.186;2023-02-28T15:19:02;8.23;;;5.10;;
21175;SDS011;10746;50.178;8.186;2023-02-28T15:21:32;7.13;;;4.73;;
21175;SDS011;10746;50.178;8.186;2023-02-28T15:24:02;7.30;;;5.30;;
21175;SDS011;10746;50.178;8.186;2023-02-28T15:26:31;12.30;;;5.50;;
21175;SDS011;10746;50.178;8.186;2023-02-28T15:29:01;8.30;;;5.13;;
21175;SDS011;10746;50.178;8.186;2023-02-28T15:31:31;5.57;;;4.40;;
21175;SDS011;10746;50.178;8.186;2023-02-28T15:34:04;7.57;;;5.17;;
21175;SDS011;10746;50.178;8.186;2023-02-28T15:36:33;9.47;;;4.70;;
21175;SDS011;10746;50.178;8.186;2023-02-28T15:39:02;7.60;;;5.20;;
21175;SDS011;10746;50.178;8.186;2023-02-28T15:41:43;7.37;;;5.00;;